sensor_id;sensor_type;location;lat;lon;timestamp;temperature;humidity
70068;DHT22;57425;51.616;6.680;2023-04-03T00:00:06;7.10;72.70
70068;DHT22;57425;51.616;6.680;2023-04-03T00:02:33;7.10;72.80
70068;DHT22;57425;51.616;6.680;2023-04-03T00:04:59;7.20;72.80
70068;DHT22;57425;51.616;6.680;2023-04-03T00:07:24;7.10;72.70
70068;DHT22;57425;51.616;6.680;2023-04-03T00:09:50;7.10;72.70
70068;DHT22;57425;51.616;6.680;2023-04-03T00:12:16;7.10;72.70
70068;DHT22;57425;51.616;6.680;2023-04-03T00:14:41;7.10;72.60
70068;DHT22;57425;51.616;6.680;2023-04-03T00:17:07;7.20;72.70
70068;DHT22;57425;51.616;6.680;2023-04-03T00:19:41;7.00;72.60
70068;DHT22;57425;51.616;6.680;2023-04-03T00:22:07;7.00;72.40
70068;DHT22;57425;51.616;6.680;2023-04-03T00:24:32;7.00;72.70
70068;DHT22;57425;51.616;6.680;2023-04-03T00:26:58;7.00;72.70
70068;DHT22;57425;51.616;6.680;2023-04-03T00:29:24;6.90;72.70
70068;DHT22;57425;51.616;6.680;2023-04-03T00:31:49;6.90;72.70
70068;DHT22;57425;51.616;6.680;2023-04-03T00:34:15;6.90;72.70
70068;DHT22;57425;51.616;6.680;2023-04-03T00:36:41;6.90;72.70
70068;DHT22;57425;51.616;6.680;2023-04-03T00:39:06;6.90;72.60
70068;DHT22;57425;51.616;6.680;2023-04-03T00:41:32;7.00;73.30
70068;DHT22;57425;51.616;6.680;2023-04-03T00:43:58;6.90;72.90
70068;DHT22;57425;51.616;6.680;2023-04-03T00:46:24;6.90;73.10
70068;DHT22;57425;51.616;6.680;2023-04-03T00:48:49;6.80;73.10
70068;DHT22;57425;51.616;6.680;2023-04-03T00:51:24;6.80;73.30
70068;DHT22;57425;51.616;6.680;2023-04-03T00:53:55;6.90;73.20
70068;DHT22;57425;51.616;6.680;2023-04-03T00:56:23;6.80;73.40
70068;DHT22;57425;51.616;6.680;2023-04-03T00:58:54;6.80;73.60
70068;DHT22;57425;51.616;6.680;2023-04-03T01:01:27;6.80;74.10
70068;DHT22;57425;51.616;6.680;2023-04-03T01:03:52;6.80;73.50
70068;DHT22;57425;51.616;6.680;2023-04-03T01:06:23;6.70;73.60
70068;DHT22;57425;51.616;6.680;2023-04-03T01:08:50;6.70;73.50
70068;DHT22;57425;51.616;6.680;2023-04-03T01:11:16;6.70;73.60
70068;DHT22;57425;51.616;6.680;2023-04-03T01:13:42;6.80;73.60
70068;DHT22;57425;51.616;6.680;2023-04-03T01:16:08;6.80;73.60
70068;DHT22;57425;51.616;6.680;2023-04-03T01:18:37;6.70;73.50
70068;DHT22;57425;51.616;6.680;2023-04-03T01:24:04;6.60;73.40
70068;DHT22;57425;51.616;6.680;2023-04-03T01:26:34;6.70;73.40
70068;DHT22;57425;51.616;6.680;2023-04-03T01:29:01;6.70;73.70
70068;DHT22;57425;51.616;6.680;2023-04-03T01:32:14;6.50;73.50
70068;DHT22;57425;51.616;6.680;2023-04-03T01:34:15;6.60;73.60
70068;DHT22;57425;51.616;6.680;2023-04-03T01:36:41;6.50;73.60
70068;DHT22;57425;51.616;6.680;2023-04-03T01:39:06;6.50;73.70
70068;DHT22;57425;51.616;6.680;2023-04-03T01:41:32;6.50;74.30
70068;DHT22;57425;51.616;6.680;2023-04-03T01:43:58;6.50;73.70
70068;DHT22;57425;51.616;6.680;2023-04-03T01:46:23;6.50;73.70
70068;DHT22;57425;51.616;6.680;2023-04-03T01:48:49;6.50;73.80
70068;DHT22;57425;51.616;6.680;2023-04-03T01:51:15;6.60;73.90
70068;DHT22;57425;51.616;6.680;2023-04-03T01:53:41;6.40;73.80
70068;DHT22;57425;51.616;6.680;2023-04-03T01:56:07;6.40;73.70
70068;DHT22;57425;51.616;6.680;2023-04-03T01:58:33;6.40;73.80
70068;DHT22;57425;51.616;6.680;2023-04-03T02:00:58;6.40;73.90
70068;DHT22;57425;51.616;6.680;2023-04-03T02:03:24;6.40;73.90
70068;DHT22;57425;51.616;6.680;2023-04-03T02:05:50;6.40;73.90
70068;DHT22;57425;51.616;6.680;2023-04-03T02:08:16;6.40;73.90
70068;DHT22;57425;51.616;6.680;2023-04-03T02:10:47;6.40;74.50
70068;DHT22;57425;51.616;6.680;2023-04-03T02:13:14;6.30;73.90
70068;DHT22;57425;51.616;6.680;2023-04-03T02:15:40;6.30;74.00
70068;DHT22;57425;51.616;6.680;2023-04-03T02:18:06;6.30;74.00
70068;DHT22;57425;51.616;6.680;2023-04-03T02:20:32;6.40;74.10
70068;DHT22;57425;51.616;6.680;2023-04-03T02:22:58;6.20;74.00
70068;DHT22;57425;51.616;6.680;2023-04-03T02:25:24;6.30;74.10
70068;DHT22;57425;51.616;6.680;2023-04-03T02:27:50;6.30;74.20
70068;DHT22;57425;51.616;6.680;2023-04-03T02:30:15;6.20;74.20
70068;DHT22;57425;51.616;6.680;2023-04-03T02:32:43;6.20;74.10
70068;DHT22;57425;51.616;6.680;2023-04-03T02:35:10;6.20;74.80
70068;DHT22;57425;51.616;6.680;2023-04-03T02:37:35;6.20;74.20
70068;DHT22;57425;51.616;6.680;2023-04-03T02:40:02;6.20;74.20
70068;DHT22;57425;51.616;6.680;2023-04-03T02:42:27;6.20;74.20
70068;DHT22;57425;51.616;6.680;2023-04-03T02:44:53;6.20;74.20
70068;DHT22;57425;51.616;6.680;2023-04-03T02:47:18;6.10;74.20
70068;DHT22;57425;51.616;6.680;2023-04-03T02:49:44;6.10;74.20
70068;DHT22;57425;51.616;6.680;2023-04-03T02:52:12;6.10;74.20
70068;DHT22;57425;51.616;6.680;2023-04-03T02:54:37;6.00;73.80
70068;DHT22;57425;51.616;6.680;2023-04-03T02:57:03;6.10;74.10
70068;DHT22;57425;51.616;6.680;2023-04-03T02:59:29;6.10;74.20
70068;DHT22;57425;51.616;6.680;2023-04-03T03:01:54;6.00;73.90
70068;DHT22;57425;51.616;6.680;2023-04-03T03:04:21;6.00;73.80
70068;DHT22;57425;51.616;6.680;2023-04-03T03:06:46;6.00;73.80
70068;DHT22;57425;51.616;6.680;2023-04-03T03:09:12;6.00;73.80
70068;DHT22;57425;51.616;6.680;2023-04-03T03:11:38;6.00;73.80
70068;DHT22;57425;51.616;6.680;2023-04-03T03:14:04;5.90;73.90
70068;DHT22;57425;51.616;6.680;2023-04-03T03:16:30;5.90;73.90
70068;DHT22;57425;51.616;6.680;2023-04-03T03:18:56;5.90;74.10
70068;DHT22;57425;51.616;6.680;2023-04-03T03:21:21;5.90;74.60
70068;DHT22;57425;51.616;6.680;2023-04-03T03:23:47;5.90;74.00
70068;DHT22;57425;51.616;6.680;2023-04-03T03:26:13;5.90;73.90
70068;DHT22;57425;51.616;6.680;2023-04-03T03:28:39;5.80;73.80
70068;DHT22;57425;51.616;6.680;2023-04-03T03:31:06;5.90;73.90
70068;DHT22;57425;51.616;6.680;2023-04-03T03:33:32;5.80;73.90
70068;DHT22;57425;51.616;6.680;2023-04-03T03:35:58;5.80;74.60
70068;DHT22;57425;51.616;6.680;2023-04-03T03:38:23;5.80;74.20
70068;DHT22;57425;51.616;6.680;2023-04-03T03:40:50;5.80;74.30
70068;DHT22;57425;51.616;6.680;2023-04-03T03:43:17;5.80;74.40
70068;DHT22;57425;51.616;6.680;2023-04-03T03:45:43;5.80;74.50
70068;DHT22;57425;51.616;6.680;2023-04-03T03:48:09;5.90;75.20
70068;DHT22;57425;51.616;6.680;2023-04-03T03:50:35;5.80;74.50
70068;DHT22;57425;51.616;6.680;2023-04-03T03:53:00;5.70;74.50
70068;DHT22;57425;51.616;6.680;2023-04-03T03:55:26;5.70;74.50
70068;DHT22;57425;51.616;6.680;2023-04-03T03:57:52;5.70;74.50
70068;DHT22;57425;51.616;6.680;2023-04-03T04:00:18;5.70;74.50
70068;DHT22;57425;51.616;6.680;2023-04-03T04:02:43;5.70;74.50
70068;DHT22;57425;51.616;6.680;2023-04-03T04:05:10;5.70;74.40
70068;DHT22;57425;51.616;6.680;2023-04-03T04:07:35;5.70;74.40
70068;DHT22;57425;51.616;6.680;2023-04-03T04:10:01;5.60;74.40
70068;DHT22;57425;51.616;6.680;2023-04-03T04:12:27;5.60;74.40
70068;DHT22;57425;51.616;6.680;2023-04-03T04:14:52;5.60;74.50
70068;DHT22;57425;51.616;6.680;2023-04-03T04:17:18;5.60;74.50
70068;DHT22;57425;51.616;6.680;2023-04-03T04:19:43;5.60;74.40
70068;DHT22;57425;51.616;6.680;2023-04-03T04:22:09;5.60;74.50
70068;DHT22;57425;51.616;6.680;2023-04-03T04:24:35;5.50;74.50
70068;DHT22;57425;51.616;6.680;2023-04-03T04:27:00;5.60;74.70
70068;DHT22;57425;51.616;6.680;2023-04-03T04:29:26;5.50;74.60
70068;DHT22;57425;51.616;6.680;2023-04-03T04:31:51;5.50;74.60
70068;DHT22;57425;51.616;6.680;2023-04-03T04:34:17;5.50;74.60
70068;DHT22;57425;51.616;6.680;2023-04-03T04:36:42;5.50;74.60
70068;DHT22;57425;51.616;6.680;2023-04-03T04:39:08;5.50;74.50
70068;DHT22;57425;51.616;6.680;2023-04-03T04:41:34;5.50;74.60
70068;DHT22;57425;51.616;6.680;2023-04-03T04:43:59;5.50;74.60
70068;DHT22;57425;51.616;6.680;2023-04-03T04:46:25;5.40;74.50
70068;DHT22;57425;51.616;6.680;2023-04-03T04:48:51;5.40;74.60
70068;DHT22;57425;51.616;6.680;2023-04-03T04:51:17;5.40;74.50
70068;DHT22;57425;51.616;6.680;2023-04-03T04:53:42;5.40;74.50
70068;DHT22;57425;51.616;6.680;2023-04-03T04:56:08;5.40;74.50
70068;DHT22;57425;51.616;6.680;2023-04-03T04:58:34;5.40;74.50
70068;DHT22;57425;51.616;6.680;2023-04-03T05:01:10;5.40;74.80
70068;DHT22;57425;51.616;6.680;2023-04-03T05:03:36;5.40;74.80
70068;DHT22;57425;51.616;6.680;2023-04-03T05:06:02;5.30;74.80
70068;DHT22;57425;51.616;6.680;2023-04-03T05:08:27;5.30;75.30
70068;DHT22;57425;51.616;6.680;2023-04-03T05:10:53;5.30;74.80
70068;DHT22;57425;51.616;6.680;2023-04-03T05:13:19;5.30;74.80
70068;DHT22;57425;51.616;6.680;2023-04-03T05:15:46;5.30;75.50
70068;DHT22;57425;51.616;6.680;2023-04-03T05:18:11;5.30;75.00
70068;DHT22;57425;51.616;6.680;2023-04-03T05:20:37;5.30;75.10
70068;DHT22;57425;51.616;6.680;2023-04-03T05:23:03;5.30;75.10
70068;DHT22;57425;51.616;6.680;2023-04-03T05:25:28;5.20;75.20
70068;DHT22;57425;51.616;6.680;2023-04-03T05:27:54;5.20;75.10
70068;DHT22;57425;51.616;6.680;2023-04-03T05:30:20;5.20;75.20
70068;DHT22;57425;51.616;6.680;2023-04-03T05:32:47;5.20;75.20
70068;DHT22;57425;51.616;6.680;2023-04-03T05:35:12;5.20;75.20
70068;DHT22;57425;51.616;6.680;2023-04-03T05:37:38;5.20;75.10
70068;DHT22;57425;51.616;6.680;2023-04-03T05:40:06;5.20;75.20
70068;DHT22;57425;51.616;6.680;2023-04-03T05:42:32;5.20;75.10
70068;DHT22;57425;51.616;6.680;2023-04-03T05:44:58;5.30;83.40
70068;DHT22;57425;51.616;6.680;2023-04-03T05:47:23;5.30;84.20
70068;DHT22;57425;51.616;6.680;2023-04-03T05:49:49;5.10;75.40
70068;DHT22;57425;51.616;6.680;2023-04-03T05:54:51;5.20;75.50
70068;DHT22;57425;51.616;6.680;2023-04-03T05:57:17;5.10;75.60
70068;DHT22;57425;51.616;6.680;2023-04-03T05:59:44;5.10;75.60
70068;DHT22;57425;51.616;6.680;2023-04-03T06:02:12;5.10;75.60
70068;DHT22;57425;51.616;6.680;2023-04-03T06:04:39;5.10;75.60
70068;DHT22;57425;51.616;6.680;2023-04-03T06:07:04;5.00;76.30
70068;DHT22;57425;51.616;6.680;2023-04-03T06:09:30;5.00;75.90
70068;DHT22;57425;51.616;6.680;2023-04-03T06:11:57;5.00;75.90
70068;DHT22;57425;51.616;6.680;2023-04-03T06:14:25;5.00;76.00
70068;DHT22;57425;51.616;6.680;2023-04-03T06:16:51;5.10;76.00
70068;DHT22;57425;51.616;6.680;2023-04-03T06:19:17;5.00;76.10
70068;DHT22;57425;51.616;6.680;2023-04-03T06:21:43;5.00;76.00
70068;DHT22;57425;51.616;6.680;2023-04-03T06:24:11;5.00;76.00
70068;DHT22;57425;51.616;6.680;2023-04-03T06:26:37;5.00;76.00
70068;DHT22;57425;51.616;6.680;2023-04-03T06:29:03;5.00;76.00
70068;DHT22;57425;51.616;6.680;2023-04-03T06:31:29;5.00;75.90
70068;DHT22;57425;51.616;6.680;2023-04-03T06:33:55;5.00;75.70
70068;DHT22;57425;51.616;6.680;2023-04-03T06:36:22;5.00;76.00
70068;DHT22;57425;51.616;6.680;2023-04-03T06:38:48;4.90;76.10
70068;DHT22;57425;51.616;6.680;2023-04-03T06:41:14;5.00;76.20
70068;DHT22;57425;51.616;6.680;2023-04-03T06:43:42;4.90;75.90
70068;DHT22;57425;51.616;6.680;2023-04-03T06:46:20;4.90;76.20
70068;DHT22;57425;51.616;6.680;2023-04-03T06:48:46;5.00;76.30
70068;DHT22;57425;51.616;6.680;2023-04-03T06:51:26;4.90;76.40
70068;DHT22;57425;51.616;6.680;2023-04-03T06:53:53;5.00;75.90
70068;DHT22;57425;51.616;6.680;2023-04-03T06:56:19;4.90;76.20
70068;DHT22;57425;51.616;6.680;2023-04-03T06:58:46;4.90;76.00
70068;DHT22;57425;51.616;6.680;2023-04-03T07:01:13;4.90;76.30
70068;DHT22;57425;51.616;6.680;2023-04-03T07:03:39;4.90;76.30
70068;DHT22;57425;51.616;6.680;2023-04-03T07:06:06;4.90;76.20
70068;DHT22;57425;51.616;6.680;2023-04-03T07:08:33;4.90;76.20
70068;DHT22;57425;51.616;6.680;2023-04-03T07:10:59;4.90;76.30
70068;DHT22;57425;51.616;6.680;2023-04-03T07:13:25;4.90;76.20
70068;DHT22;57425;51.616;6.680;2023-04-03T07:15:51;4.90;76.10
70068;DHT22;57425;51.616;6.680;2023-04-03T07:18:18;4.90;76.40
70068;DHT22;57425;51.616;6.680;2023-04-03T07:20:44;4.90;76.50
70068;DHT22;57425;51.616;6.680;2023-04-03T07:23:09;4.90;76.60
70068;DHT22;57425;51.616;6.680;2023-04-03T07:25:36;4.90;76.70
70068;DHT22;57425;51.616;6.680;2023-04-03T07:28:01;4.90;76.70
70068;DHT22;57425;51.616;6.680;2023-04-03T07:30:27;4.90;76.80
70068;DHT22;57425;51.616;6.680;2023-04-03T07:32:53;4.90;76.40
70068;DHT22;57425;51.616;6.680;2023-04-03T07:35:18;4.90;76.60
70068;DHT22;57425;51.616;6.680;2023-04-03T07:37:44;4.90;76.20
70068;DHT22;57425;51.616;6.680;2023-04-03T07:40:10;4.90;76.30
70068;DHT22;57425;51.616;6.680;2023-04-03T07:42:36;4.90;76.20
70068;DHT22;57425;51.616;6.680;2023-04-03T07:45:03;4.90;76.10
70068;DHT22;57425;51.616;6.680;2023-04-03T07:47:29;4.90;76.30
70068;DHT22;57425;51.616;6.680;2023-04-03T07:49:54;4.90;76.30
70068;DHT22;57425;51.616;6.680;2023-04-03T07:52:22;4.90;75.70
70068;DHT22;57425;51.616;6.680;2023-04-03T07:54:48;5.00;76.10
70068;DHT22;57425;51.616;6.680;2023-04-03T07:57:13;5.00;76.10
70068;DHT22;57425;51.616;6.680;2023-04-03T07:59:39;5.00;76.30
70068;DHT22;57425;51.616;6.680;2023-04-03T08:02:11;5.00;76.30
70068;DHT22;57425;51.616;6.680;2023-04-03T08:04:37;5.00;76.20
70068;DHT22;57425;51.616;6.680;2023-04-03T08:07:03;5.00;75.90
70068;DHT22;57425;51.616;6.680;2023-04-03T08:09:29;5.00;76.00
70068;DHT22;57425;51.616;6.680;2023-04-03T08:11:55;5.00;76.10
70068;DHT22;57425;51.616;6.680;2023-04-03T08:14:20;5.00;76.20
70068;DHT22;57425;51.616;6.680;2023-04-03T08:16:47;5.00;76.10
70068;DHT22;57425;51.616;6.680;2023-04-03T08:19:14;5.10;75.90
70068;DHT22;57425;51.616;6.680;2023-04-03T08:21:41;5.10;76.10
70068;DHT22;57425;51.616;6.680;2023-04-03T08:24:09;5.10;75.60
70068;DHT22;57425;51.616;6.680;2023-04-03T08:26:35;5.10;75.50
70068;DHT22;57425;51.616;6.680;2023-04-03T08:29:01;5.10;75.80
70068;DHT22;57425;51.616;6.680;2023-04-03T08:31:27;5.10;75.90
70068;DHT22;57425;51.616;6.680;2023-04-03T08:33:53;5.10;75.90
70068;DHT22;57425;51.616;6.680;2023-04-03T08:36:22;5.20;75.90
70068;DHT22;57425;51.616;6.680;2023-04-03T08:38:49;5.30;75.00
70068;DHT22;57425;51.616;6.680;2023-04-03T08:41:32;5.20;74.90
70068;DHT22;57425;51.616;6.680;2023-04-03T08:49:26;5.20;74.00
70068;DHT22;57425;51.616;6.680;2023-04-03T08:51:54;5.20;73.90
70068;DHT22;57425;51.616;6.680;2023-04-03T08:54:33;5.20;74.20
70068;DHT22;57425;51.616;6.680;2023-04-03T08:57:02;5.30;74.20
70068;DHT22;57425;51.616;6.680;2023-04-03T08:59:36;5.30;74.30
70068;DHT22;57425;51.616;6.680;2023-04-03T09:02:28;5.30;73.80
70068;DHT22;57425;51.616;6.680;2023-04-03T09:04:55;5.30;74.20
70068;DHT22;57425;51.616;6.680;2023-04-03T09:07:30;5.50;74.60
70068;DHT22;57425;51.616;6.680;2023-04-03T09:09:59;5.30;74.40
70068;DHT22;57425;51.616;6.680;2023-04-03T09:12:39;5.30;73.80
70068;DHT22;57425;51.616;6.680;2023-04-03T09:22:43;5.40;74.60
70068;DHT22;57425;51.616;6.680;2023-04-03T09:25:56;5.40;74.50
70068;DHT22;57425;51.616;6.680;2023-04-03T09:28:01;5.50;74.90
70068;DHT22;57425;51.616;6.680;2023-04-03T09:30:28;5.50;73.00
70068;DHT22;57425;51.616;6.680;2023-04-03T09:32:55;5.50;73.20
70068;DHT22;57425;51.616;6.680;2023-04-03T09:35:27;5.60;73.40
70068;DHT22;57425;51.616;6.680;2023-04-03T09:37:58;5.60;73.20
70068;DHT22;57425;51.616;6.680;2023-04-03T09:42:51;5.60;73.50
70068;DHT22;57425;51.616;6.680;2023-04-03T09:45:33;5.60;74.00
70068;DHT22;57425;51.616;6.680;2023-04-03T09:55:59;5.80;70.60
70068;DHT22;57425;51.616;6.680;2023-04-03T09:58:33;5.70;72.10
70068;DHT22;57425;51.616;6.680;2023-04-03T10:01:03;5.70;71.90
70068;DHT22;57425;51.616;6.680;2023-04-03T10:03:30;5.70;71.30
70068;DHT22;57425;51.616;6.680;2023-04-03T10:05:57;5.80;72.20
70068;DHT22;57425;51.616;6.680;2023-04-03T10:08:29;5.80;71.90
70068;DHT22;57425;51.616;6.680;2023-04-03T10:11:12;5.90;71.80
70068;DHT22;57425;51.616;6.680;2023-04-03T10:16:25;5.90;71.80
70068;DHT22;57425;51.616;6.680;2023-04-03T10:25:11;5.90;71.90
70068;DHT22;57425;51.616;6.680;2023-04-03T10:32:54;6.00;73.00
70068;DHT22;57425;51.616;6.680;2023-04-03T10:46:53;6.10;73.00
70068;DHT22;57425;51.616;6.680;2023-04-03T10:55:21;6.20;72.90
70068;DHT22;57425;51.616;6.680;2023-04-03T10:57:49;6.20;73.00
70068;DHT22;57425;51.616;6.680;2023-04-03T11:00:22;6.20;73.70
70068;DHT22;57425;51.616;6.680;2023-04-03T11:02:55;6.30;73.90
70068;DHT22;57425;51.616;6.680;2023-04-03T11:08:33;6.30;73.70
70068;DHT22;57425;51.616;6.680;2023-04-03T11:11:04;6.40;71.60
70068;DHT22;57425;51.616;6.680;2023-04-03T11:13:37;6.40;72.50
70068;DHT22;57425;51.616;6.680;2023-04-03T11:16:04;6.40;72.60
70068;DHT22;57425;51.616;6.680;2023-04-03T11:18:45;6.40;73.10
70068;DHT22;57425;51.616;6.680;2023-04-03T11:24:25;6.50;73.80
70068;DHT22;57425;51.616;6.680;2023-04-03T11:26:54;6.50;74.00
70068;DHT22;57425;51.616;6.680;2023-04-03T11:29:24;6.50;74.00
70068;DHT22;57425;51.616;6.680;2023-04-03T11:34:49;6.60;73.30
70068;DHT22;57425;51.616;6.680;2023-04-03T11:37:31;6.60;72.30
70068;DHT22;57425;51.616;6.680;2023-04-03T11:48:01;6.80;93.00
70068;DHT22;57425;51.616;6.680;2023-04-03T11:53:15;6.70;70.00
70068;DHT22;57425;51.616;6.680;2023-04-03T11:58:16;6.80;71.00
70068;DHT22;57425;51.616;6.680;2023-04-03T12:24:32;7.00;70.80
70068;DHT22;57425;51.616;6.680;2023-04-03T12:27:05;7.00;71.00
70068;DHT22;57425;51.616;6.680;2023-04-03T12:29:36;7.00;71.00
70068;DHT22;57425;51.616;6.680;2023-04-03T12:37:51;7.10;71.40
70068;DHT22;57425;51.616;6.680;2023-04-03T12:45:41;7.20;71.20
70068;DHT22;57425;51.616;6.680;2023-04-03T12:48:17;7.20;71.20
70068;DHT22;57425;51.616;6.680;2023-04-03T12:50:45;7.20;71.30
70068;DHT22;57425;51.616;6.680;2023-04-03T12:55:40;7.20;71.50
70068;DHT22;57425;51.616;6.680;2023-04-03T12:58:26;7.20;71.30
70068;DHT22;57425;51.616;6.680;2023-04-03T13:01:03;7.30;70.60
70068;DHT22;57425;51.616;6.680;2023-04-03T13:03:29;7.30;70.10
70068;DHT22;57425;51.616;6.680;2023-04-03T13:06:00;7.30;70.30
70068;DHT22;57425;51.616;6.680;2023-04-03T13:08:27;7.30;70.70
70068;DHT22;57425;51.616;6.680;2023-04-03T13:11:06;7.30;71.20
70068;DHT22;57425;51.616;6.680;2023-04-03T13:13:35;7.40;71.90
70068;DHT22;57425;51.616;6.680;2023-04-03T13:16:09;7.40;72.10
70068;DHT22;57425;51.616;6.680;2023-04-03T13:18:36;7.40;71.80
70068;DHT22;57425;51.616;6.680;2023-04-03T13:21:10;7.40;72.20
70068;DHT22;57425;51.616;6.680;2023-04-03T13:23:40;7.50;72.00
70068;DHT22;57425;51.616;6.680;2023-04-03T13:26:08;7.50;72.30
70068;DHT22;57425;51.616;6.680;2023-04-03T13:28:35;7.50;70.80
70068;DHT22;57425;51.616;6.680;2023-04-03T13:33:32;7.50;71.60
70068;DHT22;57425;51.616;6.680;2023-04-03T13:36:08;7.50;70.90
70068;DHT22;57425;51.616;6.680;2023-04-03T13:38:41;7.60;70.70
70068;DHT22;57425;51.616;6.680;2023-04-03T13:43:49;7.60;71.30
70068;DHT22;57425;51.616;6.680;2023-04-03T13:48:49;7.60;71.70
70068;DHT22;57425;51.616;6.680;2023-04-03T13:54:10;7.60;71.00
70068;DHT22;57425;51.616;6.680;2023-04-03T13:56:40;7.70;70.30
70068;DHT22;57425;51.616;6.680;2023-04-03T14:04:29;7.70;68.80
70068;DHT22;57425;51.616;6.680;2023-04-03T14:06:56;7.70;69.40
70068;DHT22;57425;51.616;6.680;2023-04-03T14:09:23;7.80;70.20
70068;DHT22;57425;51.616;6.680;2023-04-03T14:11:53;7.80;70.20
70068;DHT22;57425;51.616;6.680;2023-04-03T14:14:22;7.80;70.40
70068;DHT22;57425;51.616;6.680;2023-04-03T14:16:52;8.00;70.40
70068;DHT22;57425;51.616;6.680;2023-04-03T14:19:28;7.80;68.60
70068;DHT22;57425;51.616;6.680;2023-04-03T14:21:55;7.90;69.80
70068;DHT22;57425;51.616;6.680;2023-04-03T14:24:22;7.90;66.80
70068;DHT22;57425;51.616;6.680;2023-04-03T14:26:52;7.90;68.60
70068;DHT22;57425;51.616;6.680;2023-04-03T14:29:19;8.00;69.30
70068;DHT22;57425;51.616;6.680;2023-04-03T14:31:46;7.90;69.10
70068;DHT22;57425;51.616;6.680;2023-04-03T14:34:13;7.90;69.00
70068;DHT22;57425;51.616;6.680;2023-04-03T14:36:40;8.00;69.30
70068;DHT22;57425;51.616;6.680;2023-04-03T14:39:07;8.00;68.30
70068;DHT22;57425;51.616;6.680;2023-04-03T14:41:36;8.00;68.30
70068;DHT22;57425;51.616;6.680;2023-04-03T14:44:02;8.00;68.90
70068;DHT22;57425;51.616;6.680;2023-04-03T14:46:39;8.00;69.90
70068;DHT22;57425;51.616;6.680;2023-04-03T14:49:18;8.00;68.50
70068;DHT22;57425;51.616;6.680;2023-04-03T14:51:44;8.10;70.00
70068;DHT22;57425;51.616;6.680;2023-04-03T14:54:16;8.00;70.80
70068;DHT22;57425;51.616;6.680;2023-04-03T14:56:42;8.20;69.90
70068;DHT22;57425;51.616;6.680;2023-04-03T14:59:11;8.10;69.70
70068;DHT22;57425;51.616;6.680;2023-04-03T15:01:38;8.10;69.80
70068;DHT22;57425;51.616;6.680;2023-04-03T15:04:18;8.10;70.20
70068;DHT22;57425;51.616;6.680;2023-04-03T15:06:45;8.10;67.70
70068;DHT22;57425;51.616;6.680;2023-04-03T15:09:24;8.10;69.10
70068;DHT22;57425;51.616;6.680;2023-04-03T15:11:51;8.20;66.00
70068;DHT22;57425;51.616;6.680;2023-04-03T15:14:17;8.20;68.10
70068;DHT22;57425;51.616;6.680;2023-04-03T15:16:43;8.20;68.40
70068;DHT22;57425;51.616;6.680;2023-04-03T15:19:10;8.20;66.70
70068;DHT22;57425;51.616;6.680;2023-04-03T15:21:36;8.20;67.40
70068;DHT22;57425;51.616;6.680;2023-04-03T15:24:01;8.20;68.40
70068;DHT22;57425;51.616;6.680;2023-04-03T15:26:27;8.20;68.30
70068;DHT22;57425;51.616;6.680;2023-04-03T15:28:53;8.20;69.30
70068;DHT22;57425;51.616;6.680;2023-04-03T15:31:18;8.20;68.10
70068;DHT22;57425;51.616;6.680;2023-04-03T15:33:44;8.30;68.40
70068;DHT22;57425;51.616;6.680;2023-04-03T15:36:10;8.30;69.10
70068;DHT22;57425;51.616;6.680;2023-04-03T15:38:36;8.30;67.70
70068;DHT22;57425;51.616;6.680;2023-04-03T15:41:03;8.30;68.50
70068;DHT22;57425;51.616;6.680;2023-04-03T15:43:29;8.30;68.30
70068;DHT22;57425;51.616;6.680;2023-04-03T15:45:58;8.30;66.20
70068;DHT22;57425;51.616;6.680;2023-04-03T15:48:25;8.40;67.20
70068;DHT22;57425;51.616;6.680;2023-04-03T15:50:52;8.40;68.10
70068;DHT22;57425;51.616;6.680;2023-04-03T15:53:17;8.30;68.40
70068;DHT22;57425;51.616;6.680;2023-04-03T15:55:43;8.30;69.00
70068;DHT22;57425;51.616;6.680;2023-04-03T15:58:09;8.40;69.10
70068;DHT22;57425;51.616;6.680;2023-04-03T16:00:36;8.40;69.30
70068;DHT22;57425;51.616;6.680;2023-04-03T16:03:08;8.40;68.60
70068;DHT22;57425;51.616;6.680;2023-04-03T16:05:36;8.50;68.20
70068;DHT22;57425;51.616;6.680;2023-04-03T16:08:02;8.40;68.60
70068;DHT22;57425;51.616;6.680;2023-04-03T16:10:28;8.40;67.70
70068;DHT22;57425;51.616;6.680;2023-04-03T16:12:54;8.50;68.30
70068;DHT22;57425;51.616;6.680;2023-04-03T16:15:20;8.40;67.60
70068;DHT22;57425;51.616;6.680;2023-04-03T16:17:45;8.50;66.70
70068;DHT22;57425;51.616;6.680;2023-04-03T16:20:14;8.50;67.80
70068;DHT22;57425;51.616;6.680;2023-04-03T16:22:40;8.50;68.10
70068;DHT22;57425;51.616;6.680;2023-04-03T16:25:06;8.50;68.80
70068;DHT22;57425;51.616;6.680;2023-04-03T16:27:32;8.50;68.40
70068;DHT22;57425;51.616;6.680;2023-04-03T16:29:58;8.50;68.70
70068;DHT22;57425;51.616;6.680;2023-04-03T16:32:26;8.50;69.20
70068;DHT22;57425;51.616;6.680;2023-04-03T16:34:52;8.50;69.60
70068;DHT22;57425;51.616;6.680;2023-04-03T16:37:18;8.60;69.60
70068;DHT22;57425;51.616;6.680;2023-04-03T16:39:44;8.50;69.70
70068;DHT22;57425;51.616;6.680;2023-04-03T16:42:10;8.50;69.40
70068;DHT22;57425;51.616;6.680;2023-04-03T16:44:36;8.50;69.80
70068;DHT22;57425;51.616;6.680;2023-04-03T16:47:02;8.60;70.30
70068;DHT22;57425;51.616;6.680;2023-04-03T16:49:28;8.60;70.30
70068;DHT22;57425;51.616;6.680;2023-04-03T16:51:58;8.60;70.20
70068;DHT22;57425;51.616;6.680;2023-04-03T16:54:24;8.60;70.10
70068;DHT22;57425;51.616;6.680;2023-04-03T16:56:50;8.60;69.70
70068;DHT22;57425;51.616;6.680;2023-04-03T16:59:15;8.60;69.70
70068;DHT22;57425;51.616;6.680;2023-04-03T17:01:41;8.60;69.40
70068;DHT22;57425;51.616;6.680;2023-04-03T17:04:07;8.60;69.50
70068;DHT22;57425;51.616;6.680;2023-04-03T17:06:33;8.60;69.10
70068;DHT22;57425;51.616;6.680;2023-04-03T17:08:58;8.60;68.80
70068;DHT22;57425;51.616;6.680;2023-04-03T17:11:24;8.60;68.80
70068;DHT22;57425;51.616;6.680;2023-04-03T17:13:51;8.60;68.80
70068;DHT22;57425;51.616;6.680;2023-04-03T17:16:16;8.70;68.80
70068;DHT22;57425;51.616;6.680;2023-04-03T17:18:42;8.60;68.60
70068;DHT22;57425;51.616;6.680;2023-04-03T17:21:08;8.60;69.30
70068;DHT22;57425;51.616;6.680;2023-04-03T17:23:35;8.70;68.50
70068;DHT22;57425;51.616;6.680;2023-04-03T17:26:03;8.70;68.60
70068;DHT22;57425;51.616;6.680;2023-04-03T17:28:29;8.60;68.80
70068;DHT22;57425;51.616;6.680;2023-04-03T17:30:56;8.70;69.00
70068;DHT22;57425;51.616;6.680;2023-04-03T17:33:22;8.70;69.30
70068;DHT22;57425;51.616;6.680;2023-04-03T17:35:48;8.70;69.40
70068;DHT22;57425;51.616;6.680;2023-04-03T17:38:13;8.70;69.70
70068;DHT22;57425;51.616;6.680;2023-04-03T17:40:39;8.70;69.50
70068;DHT22;57425;51.616;6.680;2023-04-03T17:43:06;8.70;69.20
70068;DHT22;57425;51.616;6.680;2023-04-03T17:45:32;8.60;69.40
70068;DHT22;57425;51.616;6.680;2023-04-03T17:47:57;8.70;69.90
70068;DHT22;57425;51.616;6.680;2023-04-03T17:50:23;8.70;69.70
70068;DHT22;57425;51.616;6.680;2023-04-03T17:52:49;8.60;69.70
70068;DHT22;57425;51.616;6.680;2023-04-03T17:55:15;8.70;69.20
70068;DHT22;57425;51.616;6.680;2023-04-03T17:57:42;8.70;69.00
70068;DHT22;57425;51.616;6.680;2023-04-03T18:00:09;8.60;69.10
70068;DHT22;57425;51.616;6.680;2023-04-03T18:02:34;8.70;69.10